Time;durP1;ratioP1;P1;durP2;ratioP2;P2;SDS_P1;SDS_P2;PMS_P1;PMS_P2;Temp;Humidity;BMP_temperature;BMP_pressure;BME280_temperature;BME280_humidity;BME280_pressure;Samples;Min_cycle;Max_cycle;Signal;HPM_P1;HPM_P2
2022/01/04 00:00:22;;;;;;;;;;;;;;;-7.36;76.27;97559.53;5012697;28;19917;-79
2022/01/04 00:02:48;;;;;;;;;;;;;;;-7.33;76.28;97563.78;5012730;28;20116;-78
2022/01/04 00:05:13;;;;;;;;;;;;;;;-7.42;74.95;97561.84;4995565;28;19913;-78
2022/01/04 00:07:39;;;;;;;;;;;;;;;-7.36;75.88;97551.97;5012601;28;19917;-78
2022/01/04 00:10:05;;;;;;;;;;;;;;;-7.35;75.87;97543.59;5013607;28;20281;-78
2022/01/04 00:15:14;;;;;;;;;;;;;;;-7.35;75.55;97551.16;5012442;28;19924;-77
2022/01/04 00:17:40;;;;;;;;;;;;;;;-7.42;75.79;97554.31;5013457;28;19917;-79
2022/01/04 00:20:06;;;;;;;;;;;;;;;-7.52;75.30;97564.84;5013313;28;20277;-77
2022/01/04 00:22:31;;;;;;;;;;;;;;;-7.48;75.67;97561.63;5011936;28;19925;-77
2022/01/04 00:24:57;;;;;;;;;;;;;;;-7.39;76.81;97553.53;5011993;28;19924;-77
2022/01/04 00:27:22;;;;;;;;;;;;;;;-7.44;76.23;97549.19;5013173;28;19944;-77
2022/01/04 00:29:48;;;;;;;;;;;;;;;-7.49;74.97;97554.91;5011955;28;20373;-78
2022/01/04 00:32:13;;;;;;;;;;;;;;;-7.51;75.35;97566.59;4995078;28;19913;-78
2022/01/04 00:34:39;;;;;;;;;;;;;;;-7.49;75.38;97562.44;5012916;28;20451;-77
2022/01/04 00:37:04;;;;;;;;;;;;;;;-7.47;75.90;97559.19;5011490;28;19917;-77
2022/01/04 00:39:29;;;;;;;;;;;;;;;-7.49;76.41;97570.84;5012699;28;19971;-77
2022/01/04 00:41:55;;;;;;;;;;;;;;;-7.44;76.56;97586.97;5011616;28;19963;-77
2022/01/04 00:44:20;;;;;;;;;;;;;;;-7.39;76.08;97584.59;5011562;28;20447;-77
2022/01/04 00:46:46;;;;;;;;;;;;;;;-7.40;75.80;97582.91;5011501;28;20403;-77
2022/01/04 00:49:12;;;;;;;;;;;;;;;-7.51;74.59;97587.59;5012821;28;19924;-77
2022/01/04 00:51:41;;;;;;;;;;;;;;;-7.52;76.15;97590.88;4995352;28;19971;-77
2022/01/04 00:54:06;;;;;;;;;;;;;;;-7.38;76.84;97598.91;5011635;28;20380;-77
2022/01/04 00:56:32;;;;;;;;;;;;;;;-7.39;75.46;97604.75;5011598;28;19921;-77
2022/01/04 00:58:57;;;;;;;;;;;;;;;-7.47;74.83;97599.47;5012612;28;19967;-77
2022/01/04 01:01:23;;;;;;;;;;;;;;;-7.49;75.01;97601.06;4995267;28;20383;-77
2022/01/04 01:03:48;;;;;;;;;;;;;;;-7.53;75.11;97613.50;5012784;28;19917;-77
2022/01/04 01:06:14;;;;;;;;;;;;;;;-7.47;76.49;97608.66;5012818;28;19914;-76
2022/01/04 01:08:40;;;;;;;;;;;;;;;-7.45;75.14;97607.06;5012526;28;19964;-76
2022/01/04 01:11:07;;;;;;;;;;;;;;;-7.48;75.73;97612.84;5012656;28;19948;-78
2022/01/04 01:13:32;;;;;;;;;;;;;;;-7.43;75.71;97620.56;4994953;28;19956;-78
2022/01/04 01:15:58;;;;;;;;;;;;;;;-7.36;76.21;97634.22;5012529;28;19920;-78
2022/01/04 01:18:23;;;;;;;;;;;;;;;-7.36;75.19;97631.72;5016421;28;19924;-78
2022/01/04 01:20:49;;;;;;;;;;;;;;;-7.39;75.61;97622.38;5016713;28;19924;-77
2022/01/04 01:23:15;;;;;;;;;;;;;;;-7.46;74.85;97628.88;5016481;28;19931;-78
2022/01/04 01:25:40;;;;;;;;;;;;;;;-7.44;76.21;97634.81;5015212;28;19913;-78
2022/01/04 01:28:06;;;;;;;;;;;;;;;-7.39;74.82;97632.47;5015269;28;19967;-77
2022/01/04 01:30:34;;;;;;;;;;;;;;;-7.45;74.90;97632.25;5016490;28;19913;-78
2022/01/04 01:33:00;;;;;;;;;;;;;;;-7.51;75.91;97639.63;5016400;28;19923;-78
2022/01/04 01:35:25;;;;;;;;;;;;;;;-7.51;75.95;97640.47;5016280;28;19913;-77
2022/01/04 01:37:51;;;;;;;;;;;;;;;-7.48;74.97;97637.19;5015043;28;19921;-77
2022/01/04 01:40:16;;;;;;;;;;;;;;;-7.48;74.87;97642.22;5015936;28;19960;-77
2022/01/04 01:42:42;;;;;;;;;;;;;;;-7.52;76.17;97638.72;5014726;28;19964;-77
2022/01/04 01:45:09;;;;;;;;;;;;;;;-7.40;76.69;97647.53;4998339;28;19913;-78
2022/01/04 01:47:37;;;;;;;;;;;;;;;-7.45;75.52;97639.81;5014522;28;19921;-77
2022/01/04 01:50:02;;;;;;;;;;;;;;;-7.47;75.48;97651.47;4998203;28;20447;-76
2022/01/04 01:52:29;;;;;;;;;;;;;;;-7.44;75.92;97654.97;5015653;28;20003;-77
2022/01/04 01:54:54;;;;;;;;;;;;;;;-7.43;75.28;97650.78;5015811;28;19917;-79
2022/01/04 01:57:20;;;;;;;;;;;;;;;-7.45;75.19;97662.47;5014462;28;19921;-76
2022/01/04 01:59:45;;;;;;;;;;;;;;;-7.44;74.92;97670.06;5015762;28;19914;-78
2022/01/04 02:02:11;;;;;;;;;;;;;;;-7.39;74.97;97676.94;5014352;28;19921;-77
2022/01/04 02:04:36;;;;;;;;;;;;;;;-7.41;75.47;97679.41;5015487;28;20079;-77
2022/01/04 02:07:02;;;;;;;;;;;;;;;-7.39;73.99;97685.34;5015594;28;19924;-77
2022/01/04 02:09:27;;;;;;;;;;;;;;;-7.42;75.37;97680.22;5015649;28;20008;-77
2022/01/04 02:11:53;;;;;;;;;;;;;;;-7.47;75.12;97684.22;5014366;28;20288;-78
2022/01/04 02:14:19;;;;;;;;;;;;;;;-7.38;75.04;97686.19;5015558;28;19913;-78
2022/01/04 02:16:45;;;;;;;;;;;;;;;-7.44;74.19;97676.78;5015383;28;19921;-78
2022/01/04 02:19:10;;;;;;;;;;;;;;;-7.44;75.29;97667.56;5015221;28;19913;-78
2022/01/04 02:21:36;;;;;;;;;;;;;;;-7.49;75.56;97665.69;5030272;28;19917;-78
2022/01/04 02:24:01;;;;;;;;;;;;;;;-7.47;75.79;97664.06;5014268;28;19918;-77
2022/01/04 02:26:28;;;;;;;;;;;;;;;-7.43;74.55;97666.75;5014653;28;20285;-78
2022/01/04 02:28:53;;;;;;;;;;;;;;;-7.42;74.45;97672.66;4997558;28;20353;-77
2022/01/04 02:31:19;;;;;;;;;;;;;;;-7.44;75.39;97669.22;5015162;28;19967;-77
2022/01/04 02:33:44;;;;;;;;;;;;;;;-7.45;74.36;97667.53;5013928;28;20300;-78
2022/01/04 02:36:10;;;;;;;;;;;;;;;-7.46;75.56;97656.59;5014787;28;19921;-78
2022/01/04 02:38:37;;;;;;;;;;;;;;;-7.50;75.31;97664.00;4997305;28;19914;-78
2022/01/04 02:41:02;;;;;;;;;;;;;;;-7.46;75.30;97675.88;5014751;28;19925;-78
2022/01/04 02:43:28;;;;;;;;;;;;;;;-7.41;74.92;97676.91;5015047;28;19968;-78
2022/01/04 02:45:53;;;;;;;;;;;;;;;-7.46;74.83;97671.69;4997372;28;19924;-78
2022/01/04 02:48:19;;;;;;;;;;;;;;;-7.47;75.34;97676.66;5014775;28;19959;-78
2022/01/04 02:50:44;;;;;;;;;;;;;;;-7.41;76.42;97674.38;5014670;28;19917;-78
2022/01/04 02:53:10;;;;;;;;;;;;;;;-7.46;74.61;97669.19;5014597;28;19936;-78
2022/01/04 02:55:35;;;;;;;;;;;;;;;-7.46;75.05;97673.38;5014912;28;20011;-77
2022/01/04 02:58:01;;;;;;;;;;;;;;;-7.45;74.90;97672.56;5014688;28;19924;-78
2022/01/04 03:00:28;;;;;;;;;;;;;;;-7.44;76.31;97671.75;5014542;28;20319;-78
2022/01/04 03:02:54;;;;;;;;;;;;;;;-7.50;75.72;97676.56;5013532;28;20040;-78
2022/01/04 03:05:19;;;;;;;;;;;;;;;-7.49;76.11;97678.28;5014543;28;19960;-77
2022/01/04 03:07:44;;;;;;;;;;;;;;;-7.43;74.83;97676.81;4997101;28;19913;-78
2022/01/04 03:10:10;;;;;;;;;;;;;;;-7.44;74.47;97685.19;5013064;28;20308;-78
2022/01/04 03:12:36;;;;;;;;;;;;;;;-7.40;75.60;97696.22;5014065;28;19913;-78
2022/01/04 03:15:02;;;;;;;;;;;;;;;-7.44;75.49;97694.41;5014368;28;19924;-78
2022/01/04 03:17:27;;;;;;;;;;;;;;;-7.45;75.78;97687.66;5013091;28;19917;-78
2022/01/04 03:19:52;;;;;;;;;;;;;;;-7.44;75.39;97694.41;4996568;28;19932;-77
2022/01/04 03:22:18;;;;;;;;;;;;;;;-7.43;76.07;97701.16;5014215;28;19921;-77
2022/01/04 03:24:43;;;;;;;;;;;;;;;-7.42;74.52;97705.41;4996523;28;19948;-78
2022/01/04 03:27:09;;;;;;;;;;;;;;;-7.45;74.65;97710.31;5014202;28;19957;-78
2022/01/04 03:29:36;;;;;;;;;;;;;;;-7.54;74.94;97705.81;5014049;28;19968;-78
2022/01/04 03:32:02;;;;;;;;;;;;;;;-7.57;75.50;97712.41;5013885;28;19917;-78
2022/01/04 03:34:28;;;;;;;;;;;;;;;-7.52;75.07;97711.75;5012772;28;19921;-78
2022/01/04 03:36:53;;;;;;;;;;;;;;;-7.44;75.18;97710.38;5013687;28;19924;-77
2022/01/04 03:39:18;;;;;;;;;;;;;;;-7.41;74.48;97714.66;5012871;28;19917;-77
2022/01/04 03:41:44;;;;;;;;;;;;;;;-7.49;73.94;97711.03;5012971;28;20045;-78
2022/01/04 03:44:10;;;;;;;;;;;;;;;-7.50;74.23;97716.88;5012671;28;20032;-77
2022/01/04 03:46:36;;;;;;;;;;;;;;;-7.43;75.92;97721.28;5012487;28;19913;-78
2022/01/04 03:49:01;;;;;;;;;;;;;;;-7.37;74.66;97718.16;5013568;28;19917;-77
2022/01/04 03:51:27;;;;;;;;;;;;;;;-7.33;74.64;97715.81;5012271;28;19913;-77
2022/01/04 03:53:53;;;;;;;;;;;;;;;-7.30;74.29;97718.41;5013826;28;19963;-77
2022/01/04 03:56:18;;;;;;;;;;;;;;;-7.27;74.28;97721.03;5013769;28;19921;-77
2022/01/04 03:58:44;;;;;;;;;;;;;;;-7.28;74.40;97726.88;5013565;28;20032;-77
2022/01/04 04:01:09;;;;;;;;;;;;;;;-7.32;74.63;97727.59;4995827;28;19964;-76
2022/01/04 04:03:35;;;;;;;;;;;;;;;-7.30;74.43;97725.97;5012443;28;20016;-76
2022/01/04 04:06:01;;;;;;;;;;;;;;;-7.28;75.44;97726.88;5013205;28;19921;-76
2022/01/04 04:08:27;;;;;;;;;;;;;;;-7.26;74.62;97720.22;5012225;28;19917;-77
2022/01/04 04:10:52;;;;;;;;;;;;;;;-7.27;75.45;97718.53;5012185;28;20402;-77
2022/01/04 04:13:18;;;;;;;;;;;;;;;-7.33;74.05;97720.84;5013102;28;19917;-77
2022/01/04 04:15:44;;;;;;;;;;;;;;;-7.38;75.63;97723.97;5012007;28;19913;-76
2022/01/04 04:18:10;;;;;;;;;;;;;;;-7.44;74.42;97724.63;5011670;28;20015;-77
2022/01/04 04:20:38;;;;;;;;;;;;;;;-7.53;75.36;97724.31;5012143;28;20392;-77
2022/01/04 04:23:04;;;;;;;;;;;;;;;-7.51;75.73;97730.28;5011940;28;19921;-77
2022/01/04 04:25:29;;;;;;;;;;;;;;;-7.42;75.14;97725.56;5012017;28;19920;-77
2022/01/04 04:27:55;;;;;;;;;;;;;;;-7.41;74.79;97732.31;5013258;28;19917;-77
2022/01/04 04:30:20;;;;;;;;;;;;;;;-7.37;74.64;97734.13;4995625;28;20371;-77
2022/01/04 04:32:47;;;;;;;;;;;;;;;-7.34;75.43;97728.31;5013256;28;19917;-78
2022/01/04 04:35:13;;;;;;;;;;;;;;;-7.40;73.68;97731.50;5012226;28;19918;-77
2022/01/04 04:37:38;;;;;;;;;;;;;;;-7.40;74.64;97731.50;5013201;28;19928;-77
2022/01/04 04:40:04;;;;;;;;;;;;;;;-7.36;75.31;97733.31;5011823;28;20003;-78
2022/01/04 04:42:29;;;;;;;;;;;;;;;-7.38;75.47;97732.38;5013103;28;19924;-77
2022/01/04 04:44:55;;;;;;;;;;;;;;;-7.32;74.78;97735.13;5012904;28;19917;-78
2022/01/04 04:47:20;;;;;;;;;;;;;;;-7.30;75.17;97742.75;4995453;28;19921;-78
2022/01/04 04:49:46;;;;;;;;;;;;;;;-7.29;75.20;97746.97;4995398;28;20298;-78
2022/01/04 04:52:11;;;;;;;;;;;;;;;-7.32;74.65;97752.78;5011737;28;19957;-77
2022/01/04 04:54:37;;;;;;;;;;;;;;;-7.28;74.40;97757.13;5012886;28;20366;-79
2022/01/04 04:57:02;;;;;;;;;;;;;;;-7.27;74.26;97758.81;4995245;28;19932;-77
2022/01/04 04:59:28;;;;;;;;;;;;;;;-7.30;74.38;97763.75;5011751;28;19936;-77
2022/01/04 05:01:53;;;;;;;;;;;;;;;-7.32;74.92;97769.56;5012809;28;19917;-77
2022/01/04 05:04:19;;;;;;;;;;;;;;;-7.30;74.49;97762.88;5012798;28;20334;-77
2022/01/04 05:06:44;;;;;;;;;;;;;;;-7.32;74.64;97762.84;5012545;28;19924;-77
2022/01/04 05:09:10;;;;;;;;;;;;;;;-7.36;75.62;97766.06;5012579;28;19917;-77
2022/01/04 05:11:35;;;;;;;;;;;;;;;-7.35;74.38;97775.31;5012687;28;19921;-77
2022/01/04 05:14:01;;;;;;;;;;;;;;;-7.33;75.05;97777.88;5012760;28;19913;-77
2022/01/04 05:16:26;;;;;;;;;;;;;;;-7.36;75.06;97776.13;5012443;28;19928;-78
2022/01/04 05:18:52;;;;;;;;;;;;;;;-7.42;74.52;97778.44;4995199;28;19917;-76
2022/01/04 05:21:17;;;;;;;;;;;;;;;-7.46;76.32;97771.56;5013039;28;19924;-78
2022/01/04 05:23:43;;;;;;;;;;;;;;;-7.48;76.39;97779.06;5012626;28;19918;-79
2022/01/04 05:26:08;;;;;;;;;;;;;;;-7.40;75.65;97781.00;5012232;28;19924;-78
2022/01/04 05:28:33;;;;;;;;;;;;;;;-7.34;76.17;97781.22;5012728;28;19963;-77
2022/01/04 05:31:00;;;;;;;;;;;;;;;-7.32;75.43;97784.66;5011336;28;19960;-78
2022/01/04 05:33:25;;;;;;;;;;;;;;;-7.37;75.04;97781.97;5012930;28;19920;-77
2022/01/04 05:35:53;;;;;;;;;;;;;;;-7.36;74.56;97788.72;5012599;28;19917;-77
2022/01/04 05:38:18;;;;;;;;;;;;;;;-7.36;75.86;97790.41;5012714;28;20411;-77
2022/01/04 05:40:44;;;;;;;;;;;;;;;-7.33;74.67;97788.84;5012408;28;19921;-79
2022/01/04 05:43:09;;;;;;;;;;;;;;;-7.30;76.05;97791.47;5011551;28;19917;-77
2022/01/04 05:45:34;;;;;;;;;;;;;;;-7.33;74.34;97788.84;4994838;28;19921;-78
2022/01/04 05:48:00;;;;;;;;;;;;;;;-7.32;75.86;97784.66;5012594;28;19914;-77
2022/01/04 05:50:25;;;;;;;;;;;;;;;-7.32;75.17;97785.53;5027686;28;19959;-79
2022/01/04 05:52:51;;;;;;;;;;;;;;;-7.33;74.40;97783.81;4995204;28;19982;-78
2022/01/04 05:55:17;;;;;;;;;;;;;;;-7.36;74.20;97788.72;5012039;28;19917;-80
2022/01/04 05:57:42;;;;;;;;;;;;;;;-7.34;74.26;97789.63;4994754;28;19925;-78
2022/01/04 06:00:08;;;;;;;;;;;;;;;-7.32;74.31;97789.69;5012091;28;19924;-78
2022/01/04 06:02:36;;;;;;;;;;;;;;;-7.29;75.44;97795.69;5014652;28;19940;-77
2022/01/04 06:05:03;;;;;;;;;;;;;;;-7.28;73.88;97797.44;5014576;28;20401;-78
2022/01/04 06:07:28;;;;;;;;;;;;;;;-7.28;74.91;97794.91;5030765;28;20347;-78
2022/01/04 06:09:55;;;;;;;;;;;;;;;-7.36;73.45;97800.47;5015595;28;19924;-79
2022/01/04 06:14:51;;;;;;;;;;;;;;;-7.34;74.20;97802.22;5030488;28;19940;-77
2022/01/04 06:17:17;;;;;;;;;;;;;;;-7.30;74.17;97799.00;5015436;28;20299;-78
2022/01/04 06:19:42;;;;;;;;;;;;;;;-7.26;74.81;97798.31;5014297;28;20024;-78
2022/01/04 06:22:08;;;;;;;;;;;;;;;-7.23;75.09;97803.47;4998281;28;20011;-78
2022/01/04 06:24:33;;;;;;;;;;;;;;;-7.29;74.55;97803.25;5014462;28;19917;-78
2022/01/04 06:26:59;;;;;;;;;;;;;;;-7.27;74.68;97813.41;5014061;28;20451;-78
2022/01/04 06:29:24;;;;;;;;;;;;;;;-7.38;73.36;97817.16;5015506;28;19917;-79
2022/01/04 06:31:50;;;;;;;;;;;;;;;-7.47;73.79;97821.09;5014379;28;19913;-77
2022/01/04 06:34:15;;;;;;;;;;;;;;;-7.48;74.77;97826.06;5015253;28;19917;-77
2022/01/04 06:36:41;;;;;;;;;;;;;;;-7.42;74.97;97821.25;5015014;28;19924;-77
2022/01/04 06:39:06;;;;;;;;;;;;;;;-7.44;73.53;97821.19;5013813;28;19921;-78
2022/01/04 06:41:32;;;;;;;;;;;;;;;-7.49;73.25;97822.69;5013915;28;20431;-79
2022/01/04 06:43:57;;;;;;;;;;;;;;;-7.47;73.59;97831.16;5013986;28;19963;-76
2022/01/04 06:46:23;;;;;;;;;;;;;;;-7.40;73.47;97837.28;5015230;28;20016;-78
2022/01/04 06:48:48;;;;;;;;;;;;;;;-7.50;73.54;97840.25;5014257;28;19917;-78
2022/01/04 06:51:14;;;;;;;;;;;;;;;-7.58;73.62;97841.63;5015381;28;19913;-78
2022/01/04 06:53:39;;;;;;;;;;;;;;;-7.61;73.85;97844.03;5014497;28;19917;-78
2022/01/04 06:56:05;;;;;;;;;;;;;;;-7.62;74.22;97852.38;4998015;28;20033;-79
2022/01/04 06:58:30;;;;;;;;;;;;;;;-7.63;74.11;97854.03;5015263;28;19917;-78
2022/01/04 07:00:56;;;;;;;;;;;;;;;-7.60;74.14;97859.22;5013797;28;20395;-79
2022/01/04 07:03:21;;;;;;;;;;;;;;;-7.62;73.84;97857.41;5015089;28;19917;-78
2022/01/04 07:05:47;;;;;;;;;;;;;;;-7.58;74.33;97862.63;4997483;28;19921;-76
2022/01/04 07:08:12;;;;;;;;;;;;;;;-7.54;74.24;97858.56;5013347;28;20419;-79
2022/01/04 07:10:38;;;;;;;;;;;;;;;-7.54;73.85;97859.44;5013397;28;19989;-76
2022/01/04 07:13:03;;;;;;;;;;;;;;;-7.57;74.06;97866.84;5012457;28;19917;-79
2022/01/04 07:15:29;;;;;;;;;;;;;;;-7.55;73.68;97867.78;5013122;28;19917;-78
2022/01/04 07:17:54;;;;;;;;;;;;;;;-7.49;74.12;97862.97;5014489;28;19921;-78
2022/01/04 07:20:20;;;;;;;;;;;;;;;-7.31;75.80;97865.31;5014461;28;20010;-79
2022/01/04 07:22:45;;;;;;;;;;;;;;;-7.28;73.60;97860.41;5014254;28;19928;-77
2022/01/04 07:25:11;;;;;;;;;;;;;;;-7.36;73.27;97863.44;5014494;28;19913;-79
2022/01/04 07:27:36;;;;;;;;;;;;;;;-7.39;73.05;97869.19;5013278;28;20008;-78
2022/01/04 07:30:02;;;;;;;;;;;;;;;-7.45;73.46;97874.88;5013323;28;19917;-79
2022/01/04 07:32:28;;;;;;;;;;;;;;;-7.37;74.71;97877.69;5014267;28;19921;-79
2022/01/04 07:34:53;;;;;;;;;;;;;;;-7.28;73.84;97878.03;5013098;28;20425;-78
2022/01/04 07:37:19;;;;;;;;;;;;;;;-7.32;72.65;97893.84;5012988;28;20384;-78
2022/01/04 07:39:44;;;;;;;;;;;;;;;-7.36;73.27;97896.19;5014265;28;20379;-78
2022/01/04 07:42:10;;;;;;;;;;;;;;;-7.37;72.52;97897.84;4980440;28;19952;-77
2022/01/04 07:44:35;;;;;;;;;;;;;;;-7.39;73.79;97903.63;5012852;28;19914;-78
2022/01/04 07:47:01;;;;;;;;;;;;;;;-7.39;73.78;97909.50;5014093;28;20399;-80
2022/01/04 07:49:26;;;;;;;;;;;;;;;-7.40;73.96;97907.78;5012890;28;19940;-79
2022/01/04 07:51:52;;;;;;;;;;;;;;;-7.38;73.96;97901.13;5013877;28;19930;-78
2022/01/04 07:54:18;;;;;;;;;;;;;;;-7.34;73.25;97908.00;5013876;28;19920;-78
2022/01/04 07:56:44;;;;;;;;;;;;;;;-7.30;73.92;97909.84;5012648;28;19921;-80
2022/01/04 07:59:09;;;;;;;;;;;;;;;-7.26;72.86;97910.84;5013959;28;20032;-78
2022/01/04 08:01:35;;;;;;;;;;;;;;;-7.23;72.79;97909.28;5013647;28;19937;-79
2022/01/04 08:04:00;;;;;;;;;;;;;;;-7.23;73.82;97904.25;5013513;28;20411;-78
2022/01/04 08:06:29;;;;;;;;;;;;;;;-7.30;72.50;97909.00;5012540;28;20399;-79
2022/01/04 08:08:55;;;;;;;;;;;;;;;-7.21;74.04;97906.81;5013693;28;20434;-82
2022/01/04 08:11:20;;;;;;;;;;;;;;;-7.16;73.32;97907.84;5012410;28;20016;-77
2022/01/04 08:13:46;;;;;;;;;;;;;;;-7.11;73.27;97905.50;5013485;28;19913;-79
2022/01/04 08:16:14;;;;;;;;;;;;;;;-7.04;72.73;97904.94;5013449;28;19956;-77
2022/01/04 08:18:40;;;;;;;;;;;;;;;-6.98;72.47;97905.16;5013502;28;20000;-77
2022/01/04 08:21:07;;;;;;;;;;;;;;;-6.97;73.32;97901.81;5013979;28;20346;-78
2022/01/04 08:23:32;;;;;;;;;;;;;;;-6.96;72.38;97904.41;5013483;28;19921;-77
2022/01/04 08:25:57;;;;;;;;;;;;;;;-6.91;72.95;97902.91;5013181;28;20435;-79
2022/01/04 08:28:23;;;;;;;;;;;;;;;-6.89;71.90;97907.13;4979950;28;19913;-77
2022/01/04 08:30:48;;;;;;;;;;;;;;;-6.81;73.21;97908.28;5013624;28;20012;-77
2022/01/04 08:33:14;;;;;;;;;;;;;;;-6.79;71.45;97906.66;4996058;28;20012;-78
2022/01/04 08:35:39;;;;;;;;;;;;;;;-6.78;71.69;97896.66;5013523;28;20015;-77
2022/01/04 08:38:05;;;;;;;;;;;;;;;-6.74;71.23;97902.63;5013264;28;20423;-78
2022/01/04 08:40:31;;;;;;;;;;;;;;;-6.63;72.57;97898.00;5011585;28;19960;-78
2022/01/04 08:42:56;;;;;;;;;;;;;;;-6.50;71.78;97910.22;5012980;28;19964;-78
2022/01/04 08:45:23;;;;;;;;;;;;;;;-6.51;71.14;97905.94;5011999;28;19921;-80
2022/01/04 08:47:49;;;;;;;;;;;;;;;-6.48;71.80;97911.97;4996040;28;20291;-77
2022/01/04 08:50:15;;;;;;;;;;;;;;;-6.46;71.84;97912.00;5011940;28;19917;-78
2022/01/04 08:52:40;;;;;;;;;;;;;;;-6.42;71.72;97909.66;5012256;28;20439;-78
2022/01/04 08:55:06;;;;;;;;;;;;;;;-6.39;71.64;97916.47;5013025;28;19989;-76
2022/01/04 08:57:32;;;;;;;;;;;;;;;-6.34;71.54;97914.97;4995442;28;19917;-78
2022/01/04 08:59:57;;;;;;;;;;;;;;;-6.31;71.03;97915.09;5011921;28;19924;-81
2022/01/04 09:02:23;;;;;;;;;;;;;;;-6.28;70.50;97919.34;5011954;28;19920;-77
2022/01/04 09:04:49;;;;;;;;;;;;;;;-6.24;70.60;97919.50;5011960;28;19917;-83
2022/01/04 09:07:14;;;;;;;;;;;;;;;-6.24;70.88;97921.19;5012484;28;19928;-79
2022/01/04 09:09:40;;;;;;;;;;;;;;;-6.22;71.33;97922.97;5013061;28;19924;-78
2022/01/04 09:12:06;;;;;;;;;;;;;;;-6.22;70.97;97920.44;4995384;28;19913;-78
2022/01/04 09:19:59;;;;;;;;;;;;;;;-6.09;70.09;97923.34;5011636;28;19955;-79
2022/01/04 09:22:24;;;;;;;;;;;;;;;-6.06;69.96;97928.50;5012794;28;20372;-80
2022/01/04 09:24:50;;;;;;;;;;;;;;;-6.10;69.79;97929.22;5012897;28;19932;-78
2022/01/04 09:27:15;;;;;;;;;;;;;;;-6.16;70.11;97927.34;5012665;28;19964;-79
2022/01/04 09:29:41;;;;;;;;;;;;;;;-6.29;69.68;97928.59;4995450;28;20406;-79
2022/01/04 09:32:07;;;;;;;;;;;;;;;-6.22;71.61;97925.47;5012734;28;19936;-78
2022/01/04 09:34:32;;;;;;;;;;;;;;;-6.29;70.56;97930.25;5011518;28;19921;-78
2022/01/04 09:36:57;;;;;;;;;;;;;;;-6.29;71.64;97938.69;5013862;28;19924;-79
2022/01/04 09:39:24;;;;;;;;;;;;;;;-6.20;71.79;97938.13;5014595;28;20352;-78
2022/01/04 09:41:50;;;;;;;;;;;;;;;-6.17;70.85;97933.22;5015316;28;20343;-79
2022/01/04 09:44:15;;;;;;;;;;;;;;;-6.19;71.00;97939.84;4998845;28;19924;-79
2022/01/04 09:46:41;;;;;;;;;;;;;;;-6.17;71.25;97945.81;4998764;28;20388;-77
2022/01/04 09:49:06;;;;;;;;;;;;;;;-6.16;70.77;97947.53;5015189;28;19923;-77
2022/01/04 09:51:32;;;;;;;;;;;;;;;-6.19;71.05;97948.28;5015245;28;20434;-78
2022/01/04 09:53:57;;;;;;;;;;;;;;;-6.20;70.74;97954.13;5015039;28;19919;-77
2022/01/04 09:56:23;;;;;;;;;;;;;;;-6.13;71.69;97954.38;5014824;28;19913;-79
2022/01/04 09:58:51;;;;;;;;;;;;;;;-6.13;71.84;97952.69;5014929;28;19923;-79
2022/01/04 10:01:26;;;;;;;;;;;;;;;-6.04;72.36;97959.72;5014958;28;20024;-77
2022/01/04 10:03:52;;;;;;;;;;;;;;;-6.07;71.90;97960.47;5014880;28;19917;-79
2022/01/04 10:06:18;;;;;;;;;;;;;;;-6.05;71.43;97950.41;5015443;28;19920;-81
2022/01/04 10:08:56;;;;;;;;;;;;;;;-6.06;71.40;97956.28;5016049;28;20063;-77
2022/01/04 10:11:35;;;;;;;;;;;;;;;-6.04;70.80;97954.69;5015004;28;19921;-81
2022/01/04 10:14:01;;;;;;;;;;;;;;;-5.96;71.62;97953.25;5014793;28;19921;-78
2022/01/04 10:16:27;;;;;;;;;;;;;;;-5.94;71.61;97957.56;5015878;28;19925;-77
2022/01/04 10:18:53;;;;;;;;;;;;;;;-5.95;71.81;97953.31;5015003;28;19995;-81
2022/01/04 10:21:19;;;;;;;;;;;;;;;-5.93;71.29;97953.34;4998445;28;19920;-78
2022/01/04 10:23:48;;;;;;;;;;;;;;;-5.99;71.61;97946.44;5015030;28;19921;-78
2022/01/04 10:26:14;;;;;;;;;;;;;;;-5.96;71.79;97955.75;5015072;28;19918;-78
2022/01/04 10:28:41;;;;;;;;;;;;;;;-5.92;71.44;97950.88;5014524;28;19924;-80
2022/01/04 10:31:08;;;;;;;;;;;;;;;-5.91;71.43;97951.69;5015557;28;19936;-78
2022/01/04 10:33:34;;;;;;;;;;;;;;;-6.02;70.81;97958.94;4998124;28;20295;-80
2022/01/04 10:36:08;;;;;;;;;;;;;;;-6.08;71.71;97958.75;5014594;28;19920;-81
2022/01/04 10:38:34;;;;;;;;;;;;;;;-6.08;72.17;97961.28;5014705;28;19921;-83
2022/01/04 10:41:04;;;;;;;;;;;;;;;-6.10;72.00;97956.97;4997970;28;19976;-82
2022/01/04 10:43:31;;;;;;;;;;;;;;;-6.14;71.84;97958.53;4997911;28;19917;-80
2022/01/04 10:45:57;;;;;;;;;;;;;;;-6.12;71.96;97951.88;5014788;28;19920;-80
2022/01/04 10:48:29;;;;;;;;;;;;;;;-6.14;71.43;97948.44;4997471;28;19921;-79
2022/01/04 10:50:59;;;;;;;;;;;;;;;-6.08;72.33;97950.31;5014435;28;20402;-79
2022/01/04 10:53:28;;;;;;;;;;;;;;;-6.09;71.68;97948.59;5014117;28;20398;-83
2022/01/04 10:55:55;;;;;;;;;;;;;;;-6.09;72.42;97952.00;5014046;28;19917;-79
2022/01/04 10:58:21;;;;;;;;;;;;;;;-6.04;71.69;97954.69;4997595;28;19921;-79
2022/01/04 11:00:56;;;;;;;;;;;;;;;-6.09;72.37;97956.16;4997546;28;20348;-80
2022/01/04 11:03:23;;;;;;;;;;;;;;;-6.11;72.10;97945.16;5015042;28;20049;-79
2022/01/04 11:05:52;;;;;;;;;;;;;;;-6.04;71.86;97942.91;5015243;28;20276;-82
2022/01/04 11:08:17;;;;;;;;;;;;;;;-6.04;72.75;97947.09;5014488;28;20039;-82
2022/01/04 11:10:43;;;;;;;;;;;;;;;-6.02;72.11;97958.09;5014148;28;19964;-80
2022/01/04 11:13:08;;;;;;;;;;;;;;;-6.04;72.54;97959.72;4997867;28;20063;-81
2022/01/04 11:15:34;;;;;;;;;;;;;;;-6.04;71.56;97954.69;4997817;28;19925;-83
2022/01/04 11:17:59;;;;;;;;;;;;;;;-6.04;72.50;97959.72;5013569;28;19921;-79
2022/01/04 11:20:25;;;;;;;;;;;;;;;-6.05;71.41;97968.94;5015048;28;19964;-78
2022/01/04 11:22:50;;;;;;;;;;;;;;;-6.15;72.14;97962.72;4997191;28;19928;-81
2022/01/04 11:25:17;;;;;;;;;;;;;;;-6.15;71.57;97965.25;5013902;28;20376;-79
2022/01/04 11:27:42;;;;;;;;;;;;;;;-6.22;71.72;97965.84;5013590;28;19921;-82
2022/01/04 11:30:24;;;;;;;;;;;;;;;-6.21;72.10;97960.00;4997361;28;20408;-82
2022/01/04 11:32:54;;;;;;;;;;;;;;;-6.26;71.90;97969.09;4996937;28;20343;-78
2022/01/04 11:35:21;;;;;;;;;;;;;;;-6.25;71.96;97969.94;5014935;28;19920;-77
2022/01/04 11:37:50;;;;;;;;;;;;;;;-6.24;72.38;97975.03;5013972;28;19921;-77
2022/01/04 11:40:22;;;;;;;;;;;;;;;-6.29;73.05;97979.06;5014364;28;20407;-78
2022/01/04 11:42:47;;;;;;;;;;;;;;;-6.28;72.26;97970.66;5014478;28;19948;-79
2022/01/04 11:45:13;;;;;;;;;;;;;;;-6.28;72.90;97979.91;5014394;28;19917;-77
2022/01/04 11:47:38;;;;;;;;;;;;;;;-6.30;72.64;97972.31;5013242;28;19917;-77
2022/01/04 11:50:04;;;;;;;;;;;;;;;-6.42;73.44;97987.00;4996771;28;20412;-78
2022/01/04 11:52:56;;;;;;;;;;;;;;;-6.45;73.00;97977.69;5014233;28;20324;-78
2022/01/04 11:55:24;;;;;;;;;;;;;;;-6.41;74.32;97986.22;4995590;28;19917;-78
2022/01/04 11:57:54;;;;;;;;;;;;;;;-6.40;73.69;97985.41;5014301;28;19917;-79
2022/01/04 12:00:24;;;;;;;;;;;;;;;-6.38;73.07;97995.53;5012137;28;20435;-79
2022/01/04 12:03:04;;;;;;;;;;;;;;;-6.35;73.56;97988.94;4997058;28;19917;-81
2022/01/04 12:05:30;;;;;;;;;;;;;;;-6.33;72.99;97991.50;5012653;28;19924;-77
2022/01/04 12:07:57;;;;;;;;;;;;;;;-6.33;73.21;97997.41;4996471;28;19913;-79
2022/01/04 12:10:24;;;;;;;;;;;;;;;-6.32;72.90;98001.69;5012822;28;19921;-79
2022/01/04 12:12:55;;;;;;;;;;;;;;;-6.31;73.65;97995.81;5012477;28;19913;-79
2022/01/04 12:15:33;;;;;;;;;;;;;;;-6.25;73.56;97995.16;5013469;28;19919;-77
2022/01/04 12:18:02;;;;;;;;;;;;;;;-6.25;72.96;97996.03;5013642;28;20407;-78
2022/01/04 12:20:43;;;;;;;;;;;;;;;-6.22;73.02;97991.09;5012601;28;19913;-78
2022/01/04 12:23:30;;;;;;;;;;;;;;;-6.23;72.82;97984.34;5013723;28;19980;-77
2022/01/04 12:26:11;;;;;;;;;;;;;;;-6.20;72.43;97979.38;5013439;28;20392;-78
2022/01/04 12:28:40;;;;;;;;;;;;;;;-6.21;72.64;97982.72;5013566;28;20020;-78
2022/01/04 12:31:24;;;;;;;;;;;;;;;-6.17;73.10;97986.22;5012529;28;20007;-81
2022/01/04 12:33:50;;;;;;;;;;;;;;;-6.20;72.13;97997.03;5013390;28;19953;-77
2022/01/04 12:36:28;;;;;;;;;;;;;;;-6.22;71.73;98002.84;5013331;28;20376;-78
2022/01/04 12:38:54;;;;;;;;;;;;;;;-6.25;72.05;97993.50;5012494;28;19924;-78
2022/01/04 12:41:19;;;;;;;;;;;;;;;-6.28;72.25;97998.44;5013495;28;19921;-79
2022/01/04 12:43:47;;;;;;;;;;;;;;;-6.30;72.46;97991.63;5012047;28;19917;-77
2022/01/04 12:46:12;;;;;;;;;;;;;;;-6.30;72.59;97979.88;5012157;28;19925;-78
2022/01/04 12:48:47;;;;;;;;;;;;;;;-6.31;72.94;97989.91;5013480;28;19917;-78
2022/01/04 12:51:31;;;;;;;;;;;;;;;-6.31;72.86;97985.72;5013453;28;19922;-79
2022/01/04 12:53:58;;;;;;;;;;;;;;;-6.27;73.89;97976.59;5012169;28;20347;-79